sensor_id;sensor_type;location;lat;lon;timestamp;temperature;humidity
15341;DHT22;7770;52.158;5.372;2022-11-20T00:02:20;-2.80;99.90
15341;DHT22;7770;52.158;5.372;2022-11-20T00:05:07;-2.80;99.90
15341;DHT22;7770;52.158;5.372;2022-11-20T00:07:53;-2.80;99.90
15341;DHT22;7770;52.158;5.372;2022-11-20T00:10:40;-2.90;99.90
15341;DHT22;7770;52.158;5.372;2022-11-20T00:13:26;-2.90;99.90
15341;DHT22;7770;52.158;5.372;2022-11-20T00:16:14;-2.90;99.90
15341;DHT22;7770;52.158;5.372;2022-11-20T00:19:01;-2.90;99.90
15341;DHT22;7770;52.158;5.372;2022-11-20T00:21:48;-3.00;99.90
15341;DHT22;7770;52.158;5.372;2022-11-20T00:24:36;-3.00;99.90
15341;DHT22;7770;52.158;5.372;2022-11-20T00:27:22;-3.00;99.90
15341;DHT22;7770;52.158;5.372;2022-11-20T00:30:09;-3.00;99.90
15341;DHT22;7770;52.158;5.372;2022-11-20T00:32:56;-3.10;99.90
15341;DHT22;7770;52.158;5.372;2022-11-20T00:35:43;-3.10;99.90
15341;DHT22;7770;52.158;5.372;2022-11-20T00:38:30;-3.10;99.90
15341;DHT22;7770;52.158;5.372;2022-11-20T00:41:16;-3.20;99.90
15341;DHT22;7770;52.158;5.372;2022-11-20T00:44:02;-3.20;99.90
15341;DHT22;7770;52.158;5.372;2022-11-20T00:46:48;-3.20;99.90
15341;DHT22;7770;52.158;5.372;2022-11-20T00:49:34;-3.20;99.90
15341;DHT22;7770;52.158;5.372;2022-11-20T00:52:20;-3.10;99.90
15341;DHT22;7770;52.158;5.372;2022-11-20T00:55:07;-3.10;99.90
15341;DHT22;7770;52.158;5.372;2022-11-20T00:57:53;-3.10;99.90
15341;DHT22;7770;52.158;5.372;2022-11-20T01:00:38;-3.20;99.90
15341;DHT22;7770;52.158;5.372;2022-11-20T01:03:24;-3.10;99.90
15341;DHT22;7770;52.158;5.372;2022-11-20T01:06:17;-3.20;99.90
15341;DHT22;7770;52.158;5.372;2022-11-20T01:09:06;-3.20;99.90
15341;DHT22;7770;52.158;5.372;2022-11-20T01:11:55;-3.20;99.90
15341;DHT22;7770;52.158;5.372;2022-11-20T01:14:41;-3.20;99.90
15341;DHT22;7770;52.158;5.372;2022-11-20T01:17:27;-3.20;99.90
15341;DHT22;7770;52.158;5.372;2022-11-20T01:20:13;-3.20;99.90
15341;DHT22;7770;52.158;5.372;2022-11-20T01:22:59;-3.20;99.90
15341;DHT22;7770;52.158;5.372;2022-11-20T01:25:45;-3.20;99.90
15341;DHT22;7770;52.158;5.372;2022-11-20T01:28:32;-3.20;99.90
15341;DHT22;7770;52.158;5.372;2022-11-20T01:31:20;-3.20;99.90
15341;DHT22;7770;52.158;5.372;2022-11-20T01:34:14;-3.30;99.90
15341;DHT22;7770;52.158;5.372;2022-11-20T01:37:02;-3.30;99.90
15341;DHT22;7770;52.158;5.372;2022-11-20T01:39:48;-3.40;99.90
15341;DHT22;7770;52.158;5.372;2022-11-20T01:42:34;-3.40;99.90
15341;DHT22;7770;52.158;5.372;2022-11-20T01:49:08;-3.50;99.90
15341;DHT22;7770;52.158;5.372;2022-11-20T01:52:01;-3.50;99.90
15341;DHT22;7770;52.158;5.372;2022-11-20T01:57:53;-3.50;99.90
15341;DHT22;7770;52.158;5.372;2022-11-20T02:00:40;-3.50;99.90
15341;DHT22;7770;52.158;5.372;2022-11-20T02:03:26;-3.50;99.90
15341;DHT22;7770;52.158;5.372;2022-11-20T02:06:24;-3.50;99.90
15341;DHT22;7770;52.158;5.372;2022-11-20T02:09:12;-3.50;99.90
15341;DHT22;7770;52.158;5.372;2022-11-20T02:12:00;-3.50;99.90
15341;DHT22;7770;52.158;5.372;2022-11-20T02:14:46;-3.50;99.90
15341;DHT22;7770;52.158;5.372;2022-11-20T02:17:32;-3.50;99.90
15341;DHT22;7770;52.158;5.372;2022-11-20T02:20:18;-3.60;99.90
15341;DHT22;7770;52.158;5.372;2022-11-20T02:26:13;-3.60;99.90
15341;DHT22;7770;52.158;5.372;2022-11-20T02:29:02;-3.60;99.90
15341;DHT22;7770;52.158;5.372;2022-11-20T02:31:49;-3.60;99.90
15341;DHT22;7770;52.158;5.372;2022-11-20T02:34:35;-3.60;99.90
15341;DHT22;7770;52.158;5.372;2022-11-20T02:37:21;-3.70;99.90
15341;DHT22;7770;52.158;5.372;2022-11-20T02:40:07;-3.70;99.90
15341;DHT22;7770;52.158;5.372;2022-11-20T02:42:57;-3.70;99.90
15341;DHT22;7770;52.158;5.372;2022-11-20T02:45:43;-3.70;99.90
15341;DHT22;7770;52.158;5.372;2022-11-20T02:48:29;-3.60;99.90
15341;DHT22;7770;52.158;5.372;2022-11-20T02:51:15;-3.60;99.90
15341;DHT22;7770;52.158;5.372;2022-11-20T02:54:01;-3.50;99.90
15341;DHT22;7770;52.158;5.372;2022-11-20T02:56:47;-3.60;99.90
15341;DHT22;7770;52.158;5.372;2022-11-20T02:59:33;-3.60;99.90
15341;DHT22;7770;52.158;5.372;2022-11-20T03:02:20;-3.60;99.90
15341;DHT22;7770;52.158;5.372;2022-11-20T03:05:06;-3.60;99.90
15341;DHT22;7770;52.158;5.372;2022-11-20T03:07:52;-3.60;99.90
15341;DHT22;7770;52.158;5.372;2022-11-20T03:10:38;-3.60;99.90
15341;DHT22;7770;52.158;5.372;2022-11-20T03:13:24;-3.60;99.90
15341;DHT22;7770;52.158;5.372;2022-11-20T03:16:16;-3.70;99.90
15341;DHT22;7770;52.158;5.372;2022-11-20T03:19:04;-3.60;99.90
15341;DHT22;7770;52.158;5.372;2022-11-20T03:21:50;-3.70;99.90
15341;DHT22;7770;52.158;5.372;2022-11-20T03:24:36;-3.70;99.90
15341;DHT22;7770;52.158;5.372;2022-11-20T03:27:22;-3.80;99.90
15341;DHT22;7770;52.158;5.372;2022-11-20T03:30:08;-3.80;99.90
15341;DHT22;7770;52.158;5.372;2022-11-20T03:32:55;-3.80;99.90
15341;DHT22;7770;52.158;5.372;2022-11-20T03:35:41;-3.80;99.90
15341;DHT22;7770;52.158;5.372;2022-11-20T03:38:29;-3.80;99.90
15341;DHT22;7770;52.158;5.372;2022-11-20T03:41:19;-3.90;99.90
15341;DHT22;7770;52.158;5.372;2022-11-20T03:44:08;-3.90;99.90
15341;DHT22;7770;52.158;5.372;2022-11-20T03:46:55;-3.90;99.90
15341;DHT22;7770;52.158;5.372;2022-11-20T03:49:41;-3.90;99.90
15341;DHT22;7770;52.158;5.372;2022-11-20T03:52:27;-3.80;99.90
15341;DHT22;7770;52.158;5.372;2022-11-20T03:55:13;-3.80;99.90
15341;DHT22;7770;52.158;5.372;2022-11-20T03:57:59;-3.80;99.90
15341;DHT22;7770;52.158;5.372;2022-11-20T04:00:45;-3.80;99.90
15341;DHT22;7770;52.158;5.372;2022-11-20T04:03:31;-3.80;99.90
15341;DHT22;7770;52.158;5.372;2022-11-20T04:06:21;-3.80;99.90
15341;DHT22;7770;52.158;5.372;2022-11-20T04:09:13;-3.80;99.90
15341;DHT22;7770;52.158;5.372;2022-11-20T04:11:59;-3.90;99.90
15341;DHT22;7770;52.158;5.372;2022-11-20T04:14:45;-3.90;99.90
15341;DHT22;7770;52.158;5.372;2022-11-20T04:17:31;-3.90;99.90
15341;DHT22;7770;52.158;5.372;2022-11-20T04:20:17;-3.90;99.90
15341;DHT22;7770;52.158;5.372;2022-11-20T04:23:03;-3.90;99.90
15341;DHT22;7770;52.158;5.372;2022-11-20T04:25:49;-3.90;99.90
15341;DHT22;7770;52.158;5.372;2022-11-20T04:28:36;-4.00;99.90
15341;DHT22;7770;52.158;5.372;2022-11-20T04:31:28;-4.00;99.90
15341;DHT22;7770;52.158;5.372;2022-11-20T04:34:15;-4.00;99.90
15341;DHT22;7770;52.158;5.372;2022-11-20T04:37:01;-4.10;99.90
15341;DHT22;7770;52.158;5.372;2022-11-20T04:39:47;-4.00;99.90
15341;DHT22;7770;52.158;5.372;2022-11-20T04:42:33;-4.10;99.90
15341;DHT22;7770;52.158;5.372;2022-11-20T04:45:19;-4.10;99.90
15341;DHT22;7770;52.158;5.372;2022-11-20T04:48:05;-4.00;99.90
15341;DHT22;7770;52.158;5.372;2022-11-20T04:50:52;-3.90;99.90
15341;DHT22;7770;52.158;5.372;2022-11-20T04:53:38;-3.90;99.90
15341;DHT22;7770;52.158;5.372;2022-11-20T04:56:24;-3.90;99.90
15341;DHT22;7770;52.158;5.372;2022-11-20T04:59:10;-3.80;99.90
15341;DHT22;7770;52.158;5.372;2022-11-20T05:01:56;-3.80;99.90
15341;DHT22;7770;52.158;5.372;2022-11-20T05:04:42;-3.80;99.90
15341;DHT22;7770;52.158;5.372;2022-11-20T05:07:28;-3.80;99.90
15341;DHT22;7770;52.158;5.372;2022-11-20T05:10:14;-3.80;99.90
15341;DHT22;7770;52.158;5.372;2022-11-20T05:13:00;-3.80;99.90
15341;DHT22;7770;52.158;5.372;2022-11-20T05:15:46;-3.90;99.90
15341;DHT22;7770;52.158;5.372;2022-11-20T05:18:34;-4.00;99.90
15341;DHT22;7770;52.158;5.372;2022-11-20T05:21:21;-4.10;99.90
15341;DHT22;7770;52.158;5.372;2022-11-20T05:24:07;-4.20;99.90
15341;DHT22;7770;52.158;5.372;2022-11-20T05:26:53;-4.20;99.90
15341;DHT22;7770;52.158;5.372;2022-11-20T05:29:39;-3.90;99.90
15341;DHT22;7770;52.158;5.372;2022-11-20T05:32:25;-3.80;99.90
15341;DHT22;7770;52.158;5.372;2022-11-20T05:35:11;-3.90;99.90
15341;DHT22;7770;52.158;5.372;2022-11-20T05:37:57;-3.90;99.90
15341;DHT22;7770;52.158;5.372;2022-11-20T05:40:43;-3.90;99.90
15341;DHT22;7770;52.158;5.372;2022-11-20T05:43:35;-4.00;99.90
15341;DHT22;7770;52.158;5.372;2022-11-20T05:46:22;-4.00;99.90
15341;DHT22;7770;52.158;5.372;2022-11-20T05:49:08;-4.00;99.90
15341;DHT22;7770;52.158;5.372;2022-11-20T05:51:54;-4.00;99.90
15341;DHT22;7770;52.158;5.372;2022-11-20T05:54:40;-4.10;99.90
15341;DHT22;7770;52.158;5.372;2022-11-20T05:57:26;-4.00;99.90
15341;DHT22;7770;52.158;5.372;2022-11-20T06:00:12;-4.00;99.90
15341;DHT22;7770;52.158;5.372;2022-11-20T06:02:59;-4.10;99.90
15341;DHT22;7770;52.158;5.372;2022-11-20T06:05:45;-4.10;99.90
15341;DHT22;7770;52.158;5.372;2022-11-20T06:08:31;-4.10;99.90
15341;DHT22;7770;52.158;5.372;2022-11-20T06:11:18;-4.10;99.90
15341;DHT22;7770;52.158;5.372;2022-11-20T06:14:04;-4.10;99.90
15341;DHT22;7770;52.158;5.372;2022-11-20T06:16:50;-4.10;99.90
15341;DHT22;7770;52.158;5.372;2022-11-20T06:19:36;-4.10;99.90
15341;DHT22;7770;52.158;5.372;2022-11-20T06:22:22;-4.10;99.90
15341;DHT22;7770;52.158;5.372;2022-11-20T06:25:08;-4.10;99.90
15341;DHT22;7770;52.158;5.372;2022-11-20T06:27:54;-4.10;99.90
15341;DHT22;7770;52.158;5.372;2022-11-20T06:30:44;-4.10;99.90
15341;DHT22;7770;52.158;5.372;2022-11-20T06:33:31;-4.10;99.90
15341;DHT22;7770;52.158;5.372;2022-11-20T06:36:20;-4.10;99.90
15341;DHT22;7770;52.158;5.372;2022-11-20T06:39:07;-4.10;99.90
15341;DHT22;7770;52.158;5.372;2022-11-20T06:41:53;-4.10;99.90
15341;DHT22;7770;52.158;5.372;2022-11-20T06:44:39;-4.00;99.90
15341;DHT22;7770;52.158;5.372;2022-11-20T06:47:25;-4.00;99.90
15341;DHT22;7770;52.158;5.372;2022-11-20T06:50:11;-3.90;99.90
15341;DHT22;7770;52.158;5.372;2022-11-20T06:53:01;-3.80;99.90
15341;DHT22;7770;52.158;5.372;2022-11-20T06:55:50;-3.70;99.90
15341;DHT22;7770;52.158;5.372;2022-11-20T06:58:36;-3.60;99.90
15341;DHT22;7770;52.158;5.372;2022-11-20T07:01:22;-3.60;99.90
15341;DHT22;7770;52.158;5.372;2022-11-20T07:04:08;-3.50;99.90
15341;DHT22;7770;52.158;5.372;2022-11-20T07:06:54;-3.50;99.90
15341;DHT22;7770;52.158;5.372;2022-11-20T07:09:40;-3.60;99.90
15341;DHT22;7770;52.158;5.372;2022-11-20T07:12:26;-3.70;99.90
15341;DHT22;7770;52.158;5.372;2022-11-20T07:15:13;-3.70;99.90
15341;DHT22;7770;52.158;5.372;2022-11-20T07:18:00;-3.80;99.90
15341;DHT22;7770;52.158;5.372;2022-11-20T07:20:46;-3.80;99.90
15341;DHT22;7770;52.158;5.372;2022-11-20T07:23:32;-3.80;99.90
15341;DHT22;7770;52.158;5.372;2022-11-20T07:26:18;-3.70;99.90
15341;DHT22;7770;52.158;5.372;2022-11-20T07:29:05;-3.80;99.90
15341;DHT22;7770;52.158;5.372;2022-11-20T07:31:51;-3.80;99.90
15341;DHT22;7770;52.158;5.372;2022-11-20T07:34:37;-3.70;99.90
15341;DHT22;7770;52.158;5.372;2022-11-20T07:37:23;-3.70;99.90
15341;DHT22;7770;52.158;5.372;2022-11-20T07:40:09;-3.60;99.90
15341;DHT22;7770;52.158;5.372;2022-11-20T07:42:56;-3.50;99.90
15341;DHT22;7770;52.158;5.372;2022-11-20T07:45:42;-3.20;99.90
15341;DHT22;7770;52.158;5.372;2022-11-20T07:48:28;-2.40;99.90
15341;DHT22;7770;52.158;5.372;2022-11-20T07:51:14;-2.10;99.90
15341;DHT22;7770;52.158;5.372;2022-11-20T07:54:00;-2.20;99.90
15341;DHT22;7770;52.158;5.372;2022-11-20T07:56:47;-1.40;99.90
15341;DHT22;7770;52.158;5.372;2022-11-20T07:59:33;0.10;99.90
15341;DHT22;7770;52.158;5.372;2022-11-20T08:02:19;0.20;99.90
15341;DHT22;7770;52.158;5.372;2022-11-20T08:05:06;-0.10;99.90
15341;DHT22;7770;52.158;5.372;2022-11-20T08:07:53;-0.70;99.90
15341;DHT22;7770;52.158;5.372;2022-11-20T08:10:39;-1.10;99.90
15341;DHT22;7770;52.158;5.372;2022-11-20T08:13:25;-1.60;99.90
15341;DHT22;7770;52.158;5.372;2022-11-20T08:16:30;-2.10;99.90
15341;DHT22;7770;52.158;5.372;2022-11-20T08:19:17;-2.30;99.90
15341;DHT22;7770;52.158;5.372;2022-11-20T08:22:04;-1.80;99.90
15341;DHT22;7770;52.158;5.372;2022-11-20T08:24:50;-0.20;99.90
15341;DHT22;7770;52.158;5.372;2022-11-20T08:27:36;0.00;99.90
15341;DHT22;7770;52.158;5.372;2022-11-20T08:30:22;-0.40;99.90
15341;DHT22;7770;52.158;5.372;2022-11-20T08:33:09;-1.10;99.90
15341;DHT22;7770;52.158;5.372;2022-11-20T08:35:59;-1.70;99.90
15341;DHT22;7770;52.158;5.372;2022-11-20T08:38:51;-2.00;99.90
15341;DHT22;7770;52.158;5.372;2022-11-20T08:41:40;-2.00;99.90
15341;DHT22;7770;52.158;5.372;2022-11-20T08:44:26;-2.30;99.90
15341;DHT22;7770;52.158;5.372;2022-11-20T08:47:12;-2.30;99.90
15341;DHT22;7770;52.158;5.372;2022-11-20T08:49:58;-2.30;99.90
15341;DHT22;7770;52.158;5.372;2022-11-20T08:52:44;-2.30;99.90
15341;DHT22;7770;52.158;5.372;2022-11-20T08:55:31;-2.20;99.90
15341;DHT22;7770;52.158;5.372;2022-11-20T08:58:17;-2.20;99.90
15341;DHT22;7770;52.158;5.372;2022-11-20T09:01:03;-2.20;99.90
15341;DHT22;7770;52.158;5.372;2022-11-20T09:03:49;-2.20;99.90
15341;DHT22;7770;52.158;5.372;2022-11-20T09:06:35;-2.10;99.90
15341;DHT22;7770;52.158;5.372;2022-11-20T09:09:21;-2.00;99.90
15341;DHT22;7770;52.158;5.372;2022-11-20T09:12:07;-2.00;99.90
15341;DHT22;7770;52.158;5.372;2022-11-20T09:14:53;-1.80;99.90
15341;DHT22;7770;52.158;5.372;2022-11-20T09:17:39;-1.90;99.90
15341;DHT22;7770;52.158;5.372;2022-11-20T09:20:27;-1.90;99.90
15341;DHT22;7770;52.158;5.372;2022-11-20T09:23:15;-1.80;99.90
15341;DHT22;7770;52.158;5.372;2022-11-20T09:26:03;-1.60;99.90
15341;DHT22;7770;52.158;5.372;2022-11-20T09:28:49;-1.50;99.90
15341;DHT22;7770;52.158;5.372;2022-11-20T09:31:35;-1.40;99.90
15341;DHT22;7770;52.158;5.372;2022-11-20T09:34:21;-1.30;99.90
15341;DHT22;7770;52.158;5.372;2022-11-20T09:37:07;-1.10;99.90
15341;DHT22;7770;52.158;5.372;2022-11-20T09:39:53;-0.90;99.90
15341;DHT22;7770;52.158;5.372;2022-11-20T09:42:45;-0.70;99.90
15341;DHT22;7770;52.158;5.372;2022-11-20T09:45:43;-0.50;99.90
15341;DHT22;7770;52.158;5.372;2022-11-20T09:49:32;-0.50;99.90
15341;DHT22;7770;52.158;5.372;2022-11-20T09:52:37;-0.40;99.90
15341;DHT22;7770;52.158;5.372;2022-11-20T09:55:36;-0.20;99.90
15341;DHT22;7770;52.158;5.372;2022-11-20T10:01:25;0.00;99.90
15341;DHT22;7770;52.158;5.372;2022-11-20T10:04:16;-0.10;99.90
15341;DHT22;7770;52.158;5.372;2022-11-20T10:07:23;0.00;99.90
15341;DHT22;7770;52.158;5.372;2022-11-20T10:10:16;0.00;99.90
15341;DHT22;7770;52.158;5.372;2022-11-20T10:13:40;0.00;99.90
15341;DHT22;7770;52.158;5.372;2022-11-20T10:16:57;0.20;99.90
15341;DHT22;7770;52.158;5.372;2022-11-20T10:23:13;1.20;99.90
15341;DHT22;7770;52.158;5.372;2022-11-20T10:26:20;1.60;99.90
15341;DHT22;7770;52.158;5.372;2022-11-20T10:29:16;1.80;99.90
15341;DHT22;7770;52.158;5.372;2022-11-20T10:32:15;1.70;99.90
15341;DHT22;7770;52.158;5.372;2022-11-20T10:35:23;1.50;99.90
15341;DHT22;7770;52.158;5.372;2022-11-20T10:38:19;1.50;99.90
15341;DHT22;7770;52.158;5.372;2022-11-20T10:41:16;1.20;99.90
15341;DHT22;7770;52.158;5.372;2022-11-20T10:44:19;1.00;99.90
15341;DHT22;7770;52.158;5.372;2022-11-20T10:47:25;0.90;99.90
15341;DHT22;7770;52.158;5.372;2022-11-20T10:50:18;0.80;99.90
15341;DHT22;7770;52.158;5.372;2022-11-20T10:59:45;0.90;99.90
15341;DHT22;7770;52.158;5.372;2022-11-20T11:02:44;0.90;99.90
15341;DHT22;7770;52.158;5.372;2022-11-20T11:05:37;0.90;99.90
15341;DHT22;7770;52.158;5.372;2022-11-20T11:08:28;0.90;99.90
15341;DHT22;7770;52.158;5.372;2022-11-20T11:11:26;1.00;99.90
15341;DHT22;7770;52.158;5.372;2022-11-20T11:14:15;1.10;99.90
15341;DHT22;7770;52.158;5.372;2022-11-20T11:17:01;1.30;99.90
15341;DHT22;7770;52.158;5.372;2022-11-20T11:19:57;1.30;99.90
15341;DHT22;7770;52.158;5.372;2022-11-20T11:22:57;1.30;99.90
15341;DHT22;7770;52.158;5.372;2022-11-20T11:25:56;1.30;99.90
15341;DHT22;7770;52.158;5.372;2022-11-20T11:28:57;1.30;99.90
15341;DHT22;7770;52.158;5.372;2022-11-20T11:31:46;1.30;99.90
15341;DHT22;7770;52.158;5.372;2022-11-20T11:34:32;1.30;99.90
15341;DHT22;7770;52.158;5.372;2022-11-20T11:37:20;1.30;99.90
15341;DHT22;7770;52.158;5.372;2022-11-20T11:40:10;1.30;99.90
15341;DHT22;7770;52.158;5.372;2022-11-20T11:42:59;1.30;99.90
15341;DHT22;7770;52.158;5.372;2022-11-20T11:45:55;1.40;99.90
15341;DHT22;7770;52.158;5.372;2022-11-20T11:48:41;1.40;99.90
15341;DHT22;7770;52.158;5.372;2022-11-20T11:54:53;1.50;99.90
15341;DHT22;7770;52.158;5.372;2022-11-20T12:00:39;1.50;99.90
15341;DHT22;7770;52.158;5.372;2022-11-20T12:03:40;1.60;99.90
15341;DHT22;7770;52.158;5.372;2022-11-20T12:06:27;1.70;99.90
15341;DHT22;7770;52.158;5.372;2022-11-20T12:09:16;1.70;99.90
15341;DHT22;7770;52.158;5.372;2022-11-20T12:12:10;1.80;99.90
15341;DHT22;7770;52.158;5.372;2022-11-20T12:15:01;1.80;99.90
15341;DHT22;7770;52.158;5.372;2022-11-20T12:17:48;1.80;99.90
15341;DHT22;7770;52.158;5.372;2022-11-20T12:20:42;1.90;99.90
15341;DHT22;7770;52.158;5.372;2022-11-20T12:36:20;2.00;99.90
15341;DHT22;7770;52.158;5.372;2022-11-20T12:39:35;2.10;99.90
15341;DHT22;7770;52.158;5.372;2022-11-20T12:43:16;2.00;99.90
15341;DHT22;7770;52.158;5.372;2022-11-20T12:49:38;2.00;99.90
15341;DHT22;7770;52.158;5.372;2022-11-20T12:55:43;2.00;99.90
15341;DHT22;7770;52.158;5.372;2022-11-20T12:58:49;2.00;99.90
15341;DHT22;7770;52.158;5.372;2022-11-20T13:01:55;2.10;99.90
15341;DHT22;7770;52.158;5.372;2022-11-20T13:07:53;2.10;99.90
15341;DHT22;7770;52.158;5.372;2022-11-20T13:10:49;2.10;99.90
15341;DHT22;7770;52.158;5.372;2022-11-20T13:14:03;2.20;99.90
15341;DHT22;7770;52.158;5.372;2022-11-20T13:20:14;2.20;99.90
15341;DHT22;7770;52.158;5.372;2022-11-20T13:23:02;2.20;99.90
15341;DHT22;7770;52.158;5.372;2022-11-20T13:25:48;2.20;99.90
15341;DHT22;7770;52.158;5.372;2022-11-20T13:28:35;2.30;99.90
15341;DHT22;7770;52.158;5.372;2022-11-20T13:31:28;2.30;99.90
15341;DHT22;7770;52.158;5.372;2022-11-20T13:34:25;2.20;99.90
15341;DHT22;7770;52.158;5.372;2022-11-20T13:37:26;2.20;99.90
15341;DHT22;7770;52.158;5.372;2022-11-20T13:40:22;2.30;99.90
15341;DHT22;7770;52.158;5.372;2022-11-20T13:46:09;2.20;99.90
15341;DHT22;7770;52.158;5.372;2022-11-20T13:48:55;2.20;99.90
15341;DHT22;7770;52.158;5.372;2022-11-20T13:51:45;2.20;99.90
15341;DHT22;7770;52.158;5.372;2022-11-20T13:54:54;2.20;99.90
15341;DHT22;7770;52.158;5.372;2022-11-20T14:01:05;2.20;99.90
15341;DHT22;7770;52.158;5.372;2022-11-20T14:03:54;2.20;99.90
15341;DHT22;7770;52.158;5.372;2022-11-20T14:06:46;2.20;99.90
15341;DHT22;7770;52.158;5.372;2022-11-20T14:09:33;2.20;99.90
15341;DHT22;7770;52.158;5.372;2022-11-20T14:12:22;2.20;99.90
15341;DHT22;7770;52.158;5.372;2022-11-20T14:18:21;2.20;99.90
15341;DHT22;7770;52.158;5.372;2022-11-20T14:21:10;2.20;99.90
15341;DHT22;7770;52.158;5.372;2022-11-20T14:24:06;2.20;99.90
15341;DHT22;7770;52.158;5.372;2022-11-20T14:26:55;2.20;99.90
15341;DHT22;7770;52.158;5.372;2022-11-20T14:29:41;2.20;99.90
15341;DHT22;7770;52.158;5.372;2022-11-20T14:32:30;2.20;99.90
15341;DHT22;7770;52.158;5.372;2022-11-20T14:35:27;2.20;99.90
15341;DHT22;7770;52.158;5.372;2022-11-20T14:38:17;2.20;99.90
15341;DHT22;7770;52.158;5.372;2022-11-20T14:41:14;2.10;99.90
15341;DHT22;7770;52.158;5.372;2022-11-20T14:44:03;2.10;99.90
15341;DHT22;7770;52.158;5.372;2022-11-20T14:46:51;2.20;99.90
15341;DHT22;7770;52.158;5.372;2022-11-20T14:49:38;2.20;99.90
15341;DHT22;7770;52.158;5.372;2022-11-20T14:52:26;2.20;99.90
15341;DHT22;7770;52.158;5.372;2022-11-20T14:55:14;2.20;99.90
15341;DHT22;7770;52.158;5.372;2022-11-20T14:58:22;2.20;99.90
15341;DHT22;7770;52.158;5.372;2022-11-20T15:01:13;2.20;99.90
15341;DHT22;7770;52.158;5.372;2022-11-20T15:06:53;2.20;99.90
15341;DHT22;7770;52.158;5.372;2022-11-20T15:09:40;2.20;99.90
15341;DHT22;7770;52.158;5.372;2022-11-20T15:12:26;2.20;99.90
15341;DHT22;7770;52.158;5.372;2022-11-20T15:15:16;2.20;99.90
15341;DHT22;7770;52.158;5.372;2022-11-20T15:18:05;2.30;99.90
15341;DHT22;7770;52.158;5.372;2022-11-20T15:20:51;2.20;99.90
15341;DHT22;7770;52.158;5.372;2022-11-20T15:23:37;2.30;99.90
15341;DHT22;7770;52.158;5.372;2022-11-20T15:26:26;2.30;99.90
15341;DHT22;7770;52.158;5.372;2022-11-20T15:29:14;2.30;99.90
15341;DHT22;7770;52.158;5.372;2022-11-20T15:32:04;2.30;99.90
15341;DHT22;7770;52.158;5.372;2022-11-20T15:34:50;2.30;99.90
15341;DHT22;7770;52.158;5.372;2022-11-20T15:37:37;2.30;99.90
15341;DHT22;7770;52.158;5.372;2022-11-20T15:40:25;2.30;99.90
15341;DHT22;7770;52.158;5.372;2022-11-20T15:43:10;2.20;99.90
15341;DHT22;7770;52.158;5.372;2022-11-20T15:46:00;2.20;99.90
15341;DHT22;7770;52.158;5.372;2022-11-20T15:48:53;2.20;99.90
15341;DHT22;7770;52.158;5.372;2022-11-20T15:51:43;2.20;99.90
15341;DHT22;7770;52.158;5.372;2022-11-20T15:54:31;2.30;99.90
15341;DHT22;7770;52.158;5.372;2022-11-20T15:57:17;2.30;99.90
15341;DHT22;7770;52.158;5.372;2022-11-20T16:00:04;2.30;99.90
15341;DHT22;7770;52.158;5.372;2022-11-20T16:02:51;2.30;99.90
15341;DHT22;7770;52.158;5.372;2022-11-20T16:05:37;2.50;99.90
15341;DHT22;7770;52.158;5.372;2022-11-20T16:08:23;2.50;99.90
15341;DHT22;7770;52.158;5.372;2022-11-20T16:11:14;2.60;99.90
15341;DHT22;7770;52.158;5.372;2022-11-20T16:14:01;2.40;99.90
15341;DHT22;7770;52.158;5.372;2022-11-20T16:17:05;2.50;99.90
15341;DHT22;7770;52.158;5.372;2022-11-20T16:19:51;2.40;99.90
15341;DHT22;7770;52.158;5.372;2022-11-20T16:22:37;2.50;99.90
15341;DHT22;7770;52.158;5.372;2022-11-20T16:25:23;2.50;99.90
15341;DHT22;7770;52.158;5.372;2022-11-20T16:28:10;2.70;99.90
15341;DHT22;7770;52.158;5.372;2022-11-20T16:30:56;2.50;99.90
15341;DHT22;7770;52.158;5.372;2022-11-20T16:33:43;2.70;99.90
15341;DHT22;7770;52.158;5.372;2022-11-20T16:36:34;2.60;99.90
15341;DHT22;7770;52.158;5.372;2022-11-20T16:39:20;2.60;99.90
15341;DHT22;7770;52.158;5.372;2022-11-20T16:42:06;2.50;99.90
15341;DHT22;7770;52.158;5.372;2022-11-20T16:44:52;2.60;99.90
15341;DHT22;7770;52.158;5.372;2022-11-20T16:47:38;2.60;99.90
15341;DHT22;7770;52.158;5.372;2022-11-20T16:50:24;2.60;99.90
15341;DHT22;7770;52.158;5.372;2022-11-20T16:53:10;2.60;99.90
15341;DHT22;7770;52.158;5.372;2022-11-20T16:55:56;2.60;99.90
15341;DHT22;7770;52.158;5.372;2022-11-20T16:58:47;2.60;99.90
15341;DHT22;7770;52.158;5.372;2022-11-20T17:01:34;2.60;99.90
15341;DHT22;7770;52.158;5.372;2022-11-20T17:04:23;2.60;99.90
15341;DHT22;7770;52.158;5.372;2022-11-20T17:07:09;2.60;99.90
15341;DHT22;7770;52.158;5.372;2022-11-20T17:09:55;2.60;99.90
15341;DHT22;7770;52.158;5.372;2022-11-20T17:12:41;2.60;99.90
15341;DHT22;7770;52.158;5.372;2022-11-20T17:15:27;2.60;99.90
15341;DHT22;7770;52.158;5.372;2022-11-20T17:18:13;2.60;99.90
15341;DHT22;7770;52.158;5.372;2022-11-20T17:21:00;2.70;99.90
15341;DHT22;7770;52.158;5.372;2022-11-20T17:23:49;2.70;99.90
15341;DHT22;7770;52.158;5.372;2022-11-20T17:26:36;2.70;99.90
15341;DHT22;7770;52.158;5.372;2022-11-20T17:29:23;2.70;99.90
15341;DHT22;7770;52.158;5.372;2022-11-20T17:32:09;2.70;99.90
15341;DHT22;7770;52.158;5.372;2022-11-20T17:34:55;2.70;99.90
15341;DHT22;7770;52.158;5.372;2022-11-20T17:37:43;2.70;99.90
15341;DHT22;7770;52.158;5.372;2022-11-20T17:40:30;2.70;99.90
15341;DHT22;7770;52.158;5.372;2022-11-20T17:43:16;2.70;99.90
15341;DHT22;7770;52.158;5.372;2022-11-20T17:46:16;2.70;99.90
15341;DHT22;7770;52.158;5.372;2022-11-20T17:49:03;2.70;99.90
15341;DHT22;7770;52.158;5.372;2022-11-20T17:51:49;2.70;99.90
15341;DHT22;7770;52.158;5.372;2022-11-20T17:54:35;2.70;99.90
15341;DHT22;7770;52.158;5.372;2022-11-20T17:57:22;2.70;99.90
15341;DHT22;7770;52.158;5.372;2022-11-20T18:00:27;2.70;99.90
15341;DHT22;7770;52.158;5.372;2022-11-20T18:03:15;2.70;99.90
15341;DHT22;7770;52.158;5.372;2022-11-20T18:06:12;2.70;99.90
15341;DHT22;7770;52.158;5.372;2022-11-20T18:09:01;2.70;99.90
15341;DHT22;7770;52.158;5.372;2022-11-20T18:11:51;2.80;99.90
15341;DHT22;7770;52.158;5.372;2022-11-20T18:14:37;2.70;99.90
15341;DHT22;7770;52.158;5.372;2022-11-20T18:17:23;2.70;99.90
15341;DHT22;7770;52.158;5.372;2022-11-20T18:20:09;2.70;99.90
15341;DHT22;7770;52.158;5.372;2022-11-20T18:22:56;2.70;99.90
15341;DHT22;7770;52.158;5.372;2022-11-20T18:25:42;2.70;99.90
15341;DHT22;7770;52.158;5.372;2022-11-20T18:28:29;2.70;99.90
15341;DHT22;7770;52.158;5.372;2022-11-20T18:31:15;2.70;99.90
15341;DHT22;7770;52.158;5.372;2022-11-20T18:34:01;2.80;99.90
15341;DHT22;7770;52.158;5.372;2022-11-20T18:36:47;2.80;99.90
15341;DHT22;7770;52.158;5.372;2022-11-20T18:39:33;2.80;99.90
15341;DHT22;7770;52.158;5.372;2022-11-20T18:42:19;2.80;99.90
15341;DHT22;7770;52.158;5.372;2022-11-20T18:45:23;2.80;99.90
15341;DHT22;7770;52.158;5.372;2022-11-20T18:48:09;2.80;99.90
15341;DHT22;7770;52.158;5.372;2022-11-20T18:51:04;2.80;99.90
15341;DHT22;7770;52.158;5.372;2022-11-20T18:53:51;2.80;99.90
15341;DHT22;7770;52.158;5.372;2022-11-20T18:56:37;2.80;99.90
15341;DHT22;7770;52.158;5.372;2022-11-20T18:59:23;2.80;99.90
15341;DHT22;7770;52.158;5.372;2022-11-20T19:02:13;2.80;99.90
15341;DHT22;7770;52.158;5.372;2022-11-20T19:05:01;2.80;99.90
15341;DHT22;7770;52.158;5.372;2022-11-20T19:07:47;2.80;99.90
15341;DHT22;7770;52.158;5.372;2022-11-20T19:10:33;2.80;99.90
15341;DHT22;7770;52.158;5.372;2022-11-20T19:13:19;2.80;99.90
15341;DHT22;7770;52.158;5.372;2022-11-20T19:16:17;2.70;99.90
15341;DHT22;7770;52.158;5.372;2022-11-20T19:19:04;2.70;99.90
15341;DHT22;7770;52.158;5.372;2022-11-20T19:21:51;2.70;99.90